Terminal Aerodrome Forecast
Issued by NWS Wilmington, OH

Home | Current Version | Previous Version | Text Only | Print | Product List | Glossary On
Versions: 1 2 3 4 5 6 7 8 9 10 11 12 13 14 15 16 17 18 19 20 21 22 23 24 25 26
000
FTUS41 KILN 261500 AAA
TAFCVG
TAF AMD
KCVG 261519Z 2615/2718 33012KT P6SM SCT020 BKN200
      TEMPO 2615/2617 OVC030
     FM261700 33012KT P6SM SCT018 BKN200
     FM262300 01005KT P6SM FEW020 BKN080=

USA.gov is the U.S. government's official web portal to all federal, state and local government web resources and services.